sensor_id;sensor_type;location;lat;lon;timestamp;P1;durP1;ratioP1;P2;durP2;ratioP2
44456;SDS011;30159;49.316;8.558;2023-02-26T00:02:14;1.57;;;1.30;;
44456;SDS011;30159;49.316;8.558;2023-02-26T00:04:41;1.53;;;1.20;;
44456;SDS011;30159;49.316;8.558;2023-02-26T00:07:07;5.27;;;1.50;;
44456;SDS011;30159;49.316;8.558;2023-02-26T00:09:34;2.80;;;1.50;;
44456;SDS011;30159;49.316;8.558;2023-02-26T00:12:01;3.07;;;1.47;;
44456;SDS011;30159;49.316;8.558;2023-02-26T00:14:29;1.10;;;1.00;;
44456;SDS011;30159;49.316;8.558;2023-02-26T00:17:03;1.50;;;1.00;;
44456;SDS011;30159;49.316;8.558;2023-02-26T00:19:40;2.97;;;1.50;;
44456;SDS011;30159;49.316;8.558;2023-02-26T00:22:07;1.83;;;1.50;;
44456;SDS011;30159;49.316;8.558;2023-02-26T00:24:34;1.30;;;1.20;;
44456;SDS011;30159;49.316;8.558;2023-02-26T00:27:00;1.30;;;1.20;;
44456;SDS011;30159;49.316;8.558;2023-02-26T00:29:28;5.23;;;1.70;;
44456;SDS011;30159;49.316;8.558;2023-02-26T00:31:55;6.07;;;1.90;;
44456;SDS011;30159;49.316;8.558;2023-02-26T00:34:22;4.80;;;1.50;;
44456;SDS011;30159;49.316;8.558;2023-02-26T00:36:51;1.70;;;1.30;;
44456;SDS011;30159;49.316;8.558;2023-02-26T00:39:32;1.40;;;1.23;;
44456;SDS011;30159;49.316;8.558;2023-02-26T00:42:06;1.40;;;1.27;;
44456;SDS011;30159;49.316;8.558;2023-02-26T00:44:34;1.63;;;1.50;;
44456;SDS011;30159;49.316;8.558;2023-02-26T00:47:03;1.50;;;1.17;;
44456;SDS011;30159;49.316;8.558;2023-02-26T00:49:45;5.03;;;1.40;;
44456;SDS011;30159;49.316;8.558;2023-02-26T00:52:21;1.50;;;1.40;;
44456;SDS011;30159;49.316;8.558;2023-02-26T00:54:54;2.27;;;1.30;;
44456;SDS011;30159;49.316;8.558;2023-02-26T00:57:20;2.90;;;1.30;;
44456;SDS011;30159;49.316;8.558;2023-02-26T00:59:48;1.60;;;1.40;;
44456;SDS011;30159;49.316;8.558;2023-02-26T01:02:14;1.50;;;1.13;;
44456;SDS011;30159;49.316;8.558;2023-02-26T01:04:41;2.20;;;1.50;;
44456;SDS011;30159;49.316;8.558;2023-02-26T01:07:08;3.47;;;3.17;;
44456;SDS011;30159;49.316;8.558;2023-02-26T01:09:36;5.97;;;4.10;;
44456;SDS011;30159;49.316;8.558;2023-02-26T01:12:04;12.63;;;4.60;;
44456;SDS011;30159;49.316;8.558;2023-02-26T01:14:32;6.77;;;3.23;;
44456;SDS011;30159;49.316;8.558;2023-02-26T01:17:03;2.30;;;2.10;;
44456;SDS011;30159;49.316;8.558;2023-02-26T01:19:37;5.37;;;2.30;;
44456;SDS011;30159;49.316;8.558;2023-02-26T01:22:10;2.40;;;2.20;;
44456;SDS011;30159;49.316;8.558;2023-02-26T01:24:41;4.47;;;2.20;;
44456;SDS011;30159;49.316;8.558;2023-02-26T01:27:08;2.50;;;2.27;;
44456;SDS011;30159;49.316;8.558;2023-02-26T01:29:35;3.17;;;1.87;;
44456;SDS011;30159;49.316;8.558;2023-02-26T01:32:05;2.20;;;1.83;;
44456;SDS011;30159;49.316;8.558;2023-02-26T01:34:38;2.80;;;1.80;;
44456;SDS011;30159;49.316;8.558;2023-02-26T01:37:12;4.00;;;2.17;;
44456;SDS011;30159;49.316;8.558;2023-02-26T01:39:50;2.53;;;1.57;;
44456;SDS011;30159;49.316;8.558;2023-02-26T01:42:38;1.83;;;1.50;;
44456;SDS011;30159;49.316;8.558;2023-02-26T01:45:10;1.90;;;1.63;;
44456;SDS011;30159;49.316;8.558;2023-02-26T01:47:40;3.80;;;1.90;;
44456;SDS011;30159;49.316;8.558;2023-02-26T01:50:14;3.73;;;1.60;;
44456;SDS011;30159;49.316;8.558;2023-02-26T01:55:49;2.67;;;1.60;;
44456;SDS011;30159;49.316;8.558;2023-02-26T01:58:20;4.10;;;2.10;;
44456;SDS011;30159;49.316;8.558;2023-02-26T02:00:49;2.63;;;1.37;;
44456;SDS011;30159;49.316;8.558;2023-02-26T02:03:17;1.63;;;1.43;;
44456;SDS011;30159;49.316;8.558;2023-02-26T02:05:46;3.10;;;1.40;;
44456;SDS011;30159;49.316;8.558;2023-02-26T02:08:15;2.07;;;1.87;;
44456;SDS011;30159;49.316;8.558;2023-02-26T02:10:43;1.77;;;1.67;;
44456;SDS011;30159;49.316;8.558;2023-02-26T02:13:15;2.07;;;1.40;;
44456;SDS011;30159;49.316;8.558;2023-02-26T02:15:54;1.40;;;1.30;;
44456;SDS011;30159;49.316;8.558;2023-02-26T02:18:33;2.60;;;1.40;;
44456;SDS011;30159;49.316;8.558;2023-02-26T02:21:27;2.17;;;1.63;;
44456;SDS011;30159;49.316;8.558;2023-02-26T02:24:03;2.43;;;1.73;;
44456;SDS011;30159;49.316;8.558;2023-02-26T02:26:57;1.90;;;1.33;;
44456;SDS011;30159;49.316;8.558;2023-02-26T02:32:37;2.93;;;2.07;;
44456;SDS011;30159;49.316;8.558;2023-02-26T02:35:09;4.37;;;1.33;;
44456;SDS011;30159;49.316;8.558;2023-02-26T02:37:41;4.73;;;1.77;;
44456;SDS011;30159;49.316;8.558;2023-02-26T02:40:12;1.50;;;1.30;;
44456;SDS011;30159;49.316;8.558;2023-02-26T02:42:43;1.73;;;1.50;;
44456;SDS011;30159;49.316;8.558;2023-02-26T02:45:13;1.83;;;1.73;;
44456;SDS011;30159;49.316;8.558;2023-02-26T02:47:46;7.73;;;1.70;;
44456;SDS011;30159;49.316;8.558;2023-02-26T02:50:18;1.30;;;1.20;;
44456;SDS011;30159;49.316;8.558;2023-02-26T02:52:51;2.07;;;1.20;;
44456;SDS011;30159;49.316;8.558;2023-02-26T02:55:24;1.50;;;1.40;;
44456;SDS011;30159;49.316;8.558;2023-02-26T02:57:54;2.53;;;1.43;;
44456;SDS011;30159;49.316;8.558;2023-02-26T03:00:25;1.50;;;1.20;;
44456;SDS011;30159;49.316;8.558;2023-02-26T03:02:58;1.40;;;1.30;;
44456;SDS011;30159;49.316;8.558;2023-02-26T03:05:30;1.60;;;1.33;;
44456;SDS011;30159;49.316;8.558;2023-02-26T03:07:57;1.23;;;1.10;;
44456;SDS011;30159;49.316;8.558;2023-02-26T03:10:28;1.40;;;1.30;;
44456;SDS011;30159;49.316;8.558;2023-02-26T03:12:55;1.53;;;1.03;;
44456;SDS011;30159;49.316;8.558;2023-02-26T03:15:25;1.67;;;1.33;;
44456;SDS011;30159;49.316;8.558;2023-02-26T03:18:03;1.70;;;1.20;;
44456;SDS011;30159;49.316;8.558;2023-02-26T03:20:39;1.30;;;0.90;;
44456;SDS011;30159;49.316;8.558;2023-02-26T03:23:16;1.67;;;1.37;;
44456;SDS011;30159;49.316;8.558;2023-02-26T03:25:47;2.07;;;1.50;;
44456;SDS011;30159;49.316;8.558;2023-02-26T03:28:17;1.90;;;1.37;;
44456;SDS011;30159;49.316;8.558;2023-02-26T03:30:52;6.50;;;1.30;;
44456;SDS011;30159;49.316;8.558;2023-02-26T03:33:24;2.10;;;1.10;;
44456;SDS011;30159;49.316;8.558;2023-02-26T03:35:57;1.40;;;1.30;;
44456;SDS011;30159;49.316;8.558;2023-02-26T03:38:29;1.30;;;1.20;;
44456;SDS011;30159;49.316;8.558;2023-02-26T03:41:02;2.93;;;1.40;;
44456;SDS011;30159;49.316;8.558;2023-02-26T03:43:34;1.90;;;1.37;;
44456;SDS011;30159;49.316;8.558;2023-02-26T03:46:05;1.90;;;1.70;;
44456;SDS011;30159;49.316;8.558;2023-02-26T03:48:37;1.60;;;1.50;;
44456;SDS011;30159;49.316;8.558;2023-02-26T03:51:04;2.60;;;1.60;;
44456;SDS011;30159;49.316;8.558;2023-02-26T03:53:37;2.10;;;1.63;;
44456;SDS011;30159;49.316;8.558;2023-02-26T03:56:10;2.30;;;1.80;;
44456;SDS011;30159;49.316;8.558;2023-02-26T03:58:40;6.90;;;1.47;;
44456;SDS011;30159;49.316;8.558;2023-02-26T04:01:08;3.20;;;1.70;;
44456;SDS011;30159;49.316;8.558;2023-02-26T04:03:41;2.60;;;2.00;;
44456;SDS011;30159;49.316;8.558;2023-02-26T04:06:12;4.90;;;2.07;;
44456;SDS011;30159;49.316;8.558;2023-02-26T04:08:39;3.13;;;2.37;;
44456;SDS011;30159;49.316;8.558;2023-02-26T04:11:08;3.40;;;2.33;;
44456;SDS011;30159;49.316;8.558;2023-02-26T04:13:36;2.20;;;1.90;;
44456;SDS011;30159;49.316;8.558;2023-02-26T04:16:03;3.37;;;1.83;;
44456;SDS011;30159;49.316;8.558;2023-02-26T04:18:31;7.40;;;2.30;;
44456;SDS011;30159;49.316;8.558;2023-02-26T04:20:58;11.53;;;2.03;;
44456;SDS011;30159;49.316;8.558;2023-02-26T04:23:25;1.50;;;1.40;;
44456;SDS011;30159;49.316;8.558;2023-02-26T04:25:52;1.50;;;1.40;;
44456;SDS011;30159;49.316;8.558;2023-02-26T04:28:18;1.70;;;1.50;;
44456;SDS011;30159;49.316;8.558;2023-02-26T04:30:45;3.10;;;1.40;;
44456;SDS011;30159;49.316;8.558;2023-02-26T04:33:11;2.27;;;1.30;;
44456;SDS011;30159;49.316;8.558;2023-02-26T04:35:38;1.67;;;1.20;;
44456;SDS011;30159;49.316;8.558;2023-02-26T04:38:06;1.50;;;1.40;;
44456;SDS011;30159;49.316;8.558;2023-02-26T04:40:32;4.27;;;1.40;;
44456;SDS011;30159;49.316;8.558;2023-02-26T04:42:59;1.17;;;1.07;;
44456;SDS011;30159;49.316;8.558;2023-02-26T04:45:26;1.70;;;1.40;;
44456;SDS011;30159;49.316;8.558;2023-02-26T04:47:52;1.40;;;1.30;;
44456;SDS011;30159;49.316;8.558;2023-02-26T04:50:19;1.60;;;1.50;;
44456;SDS011;30159;49.316;8.558;2023-02-26T04:52:45;3.23;;;1.33;;
44456;SDS011;30159;49.316;8.558;2023-02-26T04:55:13;1.80;;;1.50;;
44456;SDS011;30159;49.316;8.558;2023-02-26T04:57:40;2.60;;;1.30;;
44456;SDS011;30159;49.316;8.558;2023-02-26T05:00:07;1.30;;;1.10;;
44456;SDS011;30159;49.316;8.558;2023-02-26T05:02:34;2.70;;;1.23;;
44456;SDS011;30159;49.316;8.558;2023-02-26T05:05:01;1.63;;;1.40;;
44456;SDS011;30159;49.316;8.558;2023-02-26T05:07:27;4.37;;;1.77;;
44456;SDS011;30159;49.316;8.558;2023-02-26T05:09:54;5.80;;;1.30;;
44456;SDS011;30159;49.316;8.558;2023-02-26T05:12:22;6.93;;;0.93;;
44456;SDS011;30159;49.316;8.558;2023-02-26T05:14:49;1.40;;;1.23;;
44456;SDS011;30159;49.316;8.558;2023-02-26T05:17:16;1.77;;;1.30;;
44456;SDS011;30159;49.316;8.558;2023-02-26T05:19:42;3.83;;;1.20;;
44456;SDS011;30159;49.316;8.558;2023-02-26T05:22:09;1.60;;;1.50;;
44456;SDS011;30159;49.316;8.558;2023-02-26T05:24:36;2.00;;;1.37;;
44456;SDS011;30159;49.316;8.558;2023-02-26T05:27:03;2.27;;;1.43;;
44456;SDS011;30159;49.316;8.558;2023-02-26T05:29:31;2.50;;;2.30;;
44456;SDS011;30159;49.316;8.558;2023-02-26T05:31:57;7.30;;;1.80;;
44456;SDS011;30159;49.316;8.558;2023-02-26T05:34:24;4.30;;;2.00;;
44456;SDS011;30159;49.316;8.558;2023-02-26T05:36:50;2.60;;;2.27;;
44456;SDS011;30159;49.316;8.558;2023-02-26T05:39:17;2.37;;;1.70;;
44456;SDS011;30159;49.316;8.558;2023-02-26T05:41:43;3.57;;;1.83;;
44456;SDS011;30159;49.316;8.558;2023-02-26T05:44:11;1.13;;;1.03;;
44456;SDS011;30159;49.316;8.558;2023-02-26T05:46:39;3.57;;;1.70;;
44456;SDS011;30159;49.316;8.558;2023-02-26T05:49:05;1.83;;;1.43;;
44456;SDS011;30159;49.316;8.558;2023-02-26T05:51:32;4.10;;;2.53;;
44456;SDS011;30159;49.316;8.558;2023-02-26T05:53:58;3.03;;;2.07;;
44456;SDS011;30159;49.316;8.558;2023-02-26T05:56:25;1.90;;;1.37;;
44456;SDS011;30159;49.316;8.558;2023-02-26T05:58:52;2.13;;;1.50;;
44456;SDS011;30159;49.316;8.558;2023-02-26T06:01:18;9.33;;;2.30;;
44456;SDS011;30159;49.316;8.558;2023-02-26T06:03:46;2.73;;;1.77;;
44456;SDS011;30159;49.316;8.558;2023-02-26T06:06:12;2.27;;;1.57;;
44456;SDS011;30159;49.316;8.558;2023-02-26T06:08:42;3.13;;;1.70;;
44456;SDS011;30159;49.316;8.558;2023-02-26T06:11:08;3.73;;;1.57;;
44456;SDS011;30159;49.316;8.558;2023-02-26T06:13:35;1.93;;;1.30;;
44456;SDS011;30159;49.316;8.558;2023-02-26T06:16:01;1.40;;;1.30;;
44456;SDS011;30159;49.316;8.558;2023-02-26T06:18:28;0.97;;;0.73;;
44456;SDS011;30159;49.316;8.558;2023-02-26T06:20:57;2.20;;;1.73;;
44456;SDS011;30159;49.316;8.558;2023-02-26T06:23:24;4.70;;;1.70;;
44456;SDS011;30159;49.316;8.558;2023-02-26T06:25:50;1.53;;;1.40;;
44456;SDS011;30159;49.316;8.558;2023-02-26T06:28:18;3.60;;;1.90;;
44456;SDS011;30159;49.316;8.558;2023-02-26T06:30:45;2.33;;;1.83;;
44456;SDS011;30159;49.316;8.558;2023-02-26T06:33:12;3.30;;;1.00;;
44456;SDS011;30159;49.316;8.558;2023-02-26T06:35:38;1.37;;;1.27;;
44456;SDS011;30159;49.316;8.558;2023-02-26T06:38:08;1.10;;;0.73;;
44456;SDS011;30159;49.316;8.558;2023-02-26T06:40:34;5.43;;;1.63;;
44456;SDS011;30159;49.316;8.558;2023-02-26T06:43:01;2.47;;;1.43;;
44456;SDS011;30159;49.316;8.558;2023-02-26T06:45:28;1.53;;;1.00;;
44456;SDS011;30159;49.316;8.558;2023-02-26T06:47:54;3.90;;;1.17;;
44456;SDS011;30159;49.316;8.558;2023-02-26T06:50:21;4.03;;;1.50;;
44456;SDS011;30159;49.316;8.558;2023-02-26T06:52:47;2.10;;;1.90;;
44456;SDS011;30159;49.316;8.558;2023-02-26T06:55:16;1.47;;;1.20;;
44456;SDS011;30159;49.316;8.558;2023-02-26T06:57:43;2.27;;;1.60;;
44456;SDS011;30159;49.316;8.558;2023-02-26T07:00:10;2.40;;;1.67;;
44456;SDS011;30159;49.316;8.558;2023-02-26T07:02:37;1.73;;;1.63;;
44456;SDS011;30159;49.316;8.558;2023-02-26T07:05:03;3.07;;;1.53;;
44456;SDS011;30159;49.316;8.558;2023-02-26T07:07:31;3.47;;;1.70;;
44456;SDS011;30159;49.316;8.558;2023-02-26T07:09:57;2.47;;;1.70;;
44456;SDS011;30159;49.316;8.558;2023-02-26T07:12:25;2.00;;;1.30;;
44456;SDS011;30159;49.316;8.558;2023-02-26T07:14:51;3.17;;;1.57;;
44456;SDS011;30159;49.316;8.558;2023-02-26T07:17:18;1.70;;;1.60;;
44456;SDS011;30159;49.316;8.558;2023-02-26T07:19:45;1.47;;;1.37;;
44456;SDS011;30159;49.316;8.558;2023-02-26T07:22:12;4.20;;;2.30;;
44456;SDS011;30159;49.316;8.558;2023-02-26T07:24:39;1.93;;;0.90;;
44456;SDS011;30159;49.316;8.558;2023-02-26T07:27:05;4.43;;;1.20;;
44456;SDS011;30159;49.316;8.558;2023-02-26T07:29:33;3.10;;;1.30;;
44456;SDS011;30159;49.316;8.558;2023-02-26T07:32:00;1.33;;;1.23;;
44456;SDS011;30159;49.316;8.558;2023-02-26T07:34:27;1.33;;;1.23;;
44456;SDS011;30159;49.316;8.558;2023-02-26T07:36:54;1.40;;;1.30;;
44456;SDS011;30159;49.316;8.558;2023-02-26T07:39:20;4.30;;;1.33;;
44456;SDS011;30159;49.316;8.558;2023-02-26T07:41:47;0.93;;;0.80;;
44456;SDS011;30159;49.316;8.558;2023-02-26T07:44:13;2.67;;;1.50;;
44456;SDS011;30159;49.316;8.558;2023-02-26T07:46:41;2.73;;;1.23;;
44456;SDS011;30159;49.316;8.558;2023-02-26T07:49:08;1.27;;;1.10;;
44456;SDS011;30159;49.316;8.558;2023-02-26T07:51:34;2.13;;;1.37;;
44456;SDS011;30159;49.316;8.558;2023-02-26T07:54:01;1.50;;;1.40;;
44456;SDS011;30159;49.316;8.558;2023-02-26T07:56:28;1.20;;;1.10;;
44456;SDS011;30159;49.316;8.558;2023-02-26T07:58:55;4.50;;;1.10;;
44456;SDS011;30159;49.316;8.558;2023-02-26T08:01:21;2.27;;;1.00;;
44456;SDS011;30159;49.316;8.558;2023-02-26T08:03:49;1.60;;;1.20;;
44456;SDS011;30159;49.316;8.558;2023-02-26T08:06:15;1.40;;;1.30;;
44456;SDS011;30159;49.316;8.558;2023-02-26T08:08:42;1.33;;;1.23;;
44456;SDS011;30159;49.316;8.558;2023-02-26T08:11:09;3.10;;;1.40;;
44456;SDS011;30159;49.316;8.558;2023-02-26T08:13:35;1.57;;;1.40;;
44456;SDS011;30159;49.316;8.558;2023-02-26T08:16:02;1.43;;;1.10;;
44456;SDS011;30159;49.316;8.558;2023-02-26T08:18:29;2.20;;;0.90;;
44456;SDS011;30159;49.316;8.558;2023-02-26T08:20:57;1.77;;;1.30;;
44456;SDS011;30159;49.316;8.558;2023-02-26T08:23:23;1.23;;;1.07;;
44456;SDS011;30159;49.316;8.558;2023-02-26T08:25:50;1.30;;;0.77;;
44456;SDS011;30159;49.316;8.558;2023-02-26T08:28:25;1.57;;;1.10;;
44456;SDS011;30159;49.316;8.558;2023-02-26T08:30:51;2.70;;;1.47;;
44456;SDS011;30159;49.316;8.558;2023-02-26T08:33:18;1.50;;;1.40;;
44456;SDS011;30159;49.316;8.558;2023-02-26T08:35:44;3.27;;;1.30;;
44456;SDS011;30159;49.316;8.558;2023-02-26T08:38:12;1.60;;;1.50;;
44456;SDS011;30159;49.316;8.558;2023-02-26T08:40:39;1.17;;;1.07;;
44456;SDS011;30159;49.316;8.558;2023-02-26T08:43:06;2.50;;;1.40;;
44456;SDS011;30159;49.316;8.558;2023-02-26T08:45:33;1.33;;;1.10;;
44456;SDS011;30159;49.316;8.558;2023-02-26T08:47:59;2.60;;;1.20;;
44456;SDS011;30159;49.316;8.558;2023-02-26T08:50:26;1.70;;;1.30;;
44456;SDS011;30159;49.316;8.558;2023-02-26T08:52:53;2.60;;;1.20;;
44456;SDS011;30159;49.316;8.558;2023-02-26T08:55:21;1.43;;;1.10;;
44456;SDS011;30159;49.316;8.558;2023-02-26T08:57:48;1.33;;;1.20;;
44456;SDS011;30159;49.316;8.558;2023-02-26T09:00:14;1.10;;;1.00;;
44456;SDS011;30159;49.316;8.558;2023-02-26T09:02:42;0.97;;;0.90;;
44456;SDS011;30159;49.316;8.558;2023-02-26T09:05:09;0.80;;;0.70;;
44456;SDS011;30159;49.316;8.558;2023-02-26T09:07:37;1.50;;;1.33;;
44456;SDS011;30159;49.316;8.558;2023-02-26T09:10:04;2.53;;;1.00;;
44456;SDS011;30159;49.316;8.558;2023-02-26T09:12:32;1.13;;;0.97;;
44456;SDS011;30159;49.316;8.558;2023-02-26T09:15:00;3.83;;;1.40;;
44456;SDS011;30159;49.316;8.558;2023-02-26T09:17:28;2.80;;;1.73;;
44456;SDS011;30159;49.316;8.558;2023-02-26T09:19:55;2.70;;;1.10;;
44456;SDS011;30159;49.316;8.558;2023-02-26T09:22:22;2.10;;;1.13;;
44456;SDS011;30159;49.316;8.558;2023-02-26T09:24:49;3.03;;;1.40;;
44456;SDS011;30159;49.316;8.558;2023-02-26T09:27:16;3.10;;;1.50;;
44456;SDS011;30159;49.316;8.558;2023-02-26T09:29:44;2.50;;;1.10;;
44456;SDS011;30159;49.316;8.558;2023-02-26T09:32:10;0.90;;;0.60;;
44456;SDS011;30159;49.316;8.558;2023-02-26T09:34:37;2.10;;;1.53;;
44456;SDS011;30159;49.316;8.558;2023-02-26T09:37:05;6.67;;;1.07;;
44456;SDS011;30159;49.316;8.558;2023-02-26T09:39:33;1.27;;;1.10;;
44456;SDS011;30159;49.316;8.558;2023-02-26T09:42:02;1.37;;;1.20;;
44456;SDS011;30159;49.316;8.558;2023-02-26T09:44:36;2.13;;;1.07;;
44456;SDS011;30159;49.316;8.558;2023-02-26T09:47:06;1.20;;;1.10;;
44456;SDS011;30159;49.316;8.558;2023-02-26T09:49:46;1.60;;;1.50;;
44456;SDS011;30159;49.316;8.558;2023-02-26T09:52:20;2.27;;;1.10;;
44456;SDS011;30159;49.316;8.558;2023-02-26T09:54:51;1.00;;;0.90;;
44456;SDS011;30159;49.316;8.558;2023-02-26T09:57:25;1.30;;;1.07;;
44456;SDS011;30159;49.316;8.558;2023-02-26T09:59:55;1.10;;;1.00;;
44456;SDS011;30159;49.316;8.558;2023-02-26T10:02:27;1.60;;;1.20;;
44456;SDS011;30159;49.316;8.558;2023-02-26T10:05:05;1.77;;;1.13;;
44456;SDS011;30159;49.316;8.558;2023-02-26T10:07:41;1.40;;;1.30;;
44456;SDS011;30159;49.316;8.558;2023-02-26T10:10:14;2.77;;;1.37;;
44456;SDS011;30159;49.316;8.558;2023-02-26T10:12:47;1.20;;;1.00;;
44456;SDS011;30159;49.316;8.558;2023-02-26T10:15:18;2.20;;;1.20;;
44456;SDS011;30159;49.316;8.558;2023-02-26T10:17:56;1.10;;;1.00;;
44456;SDS011;30159;49.316;8.558;2023-02-26T10:20:29;1.13;;;0.70;;
44456;SDS011;30159;49.316;8.558;2023-02-26T10:23:01;0.60;;;0.57;;
44456;SDS011;30159;49.316;8.558;2023-02-26T10:25:33;1.10;;;0.87;;
44456;SDS011;30159;49.316;8.558;2023-02-26T10:28:07;0.90;;;0.60;;
44456;SDS011;30159;49.316;8.558;2023-02-26T10:30:53;0.97;;;0.80;;
44456;SDS011;30159;49.316;8.558;2023-02-26T10:33:32;0.90;;;0.80;;
44456;SDS011;30159;49.316;8.558;2023-02-26T10:36:06;0.80;;;0.80;;
44456;SDS011;30159;49.316;8.558;2023-02-26T10:38:39;0.83;;;0.73;;
44456;SDS011;30159;49.316;8.558;2023-02-26T10:41:08;0.80;;;0.60;;
44456;SDS011;30159;49.316;8.558;2023-02-26T10:43:39;0.80;;;0.60;;
44456;SDS011;30159;49.316;8.558;2023-02-26T10:46:12;1.13;;;0.70;;
44456;SDS011;30159;49.316;8.558;2023-02-26T10:48:57;0.70;;;0.70;;
44456;SDS011;30159;49.316;8.558;2023-02-26T10:51:38;1.10;;;0.80;;
44456;SDS011;30159;49.316;8.558;2023-02-26T10:54:14;0.60;;;0.60;;
44456;SDS011;30159;49.316;8.558;2023-02-26T10:56:44;0.70;;;0.53;;
44456;SDS011;30159;49.316;8.558;2023-02-26T10:59:11;0.70;;;0.60;;
44456;SDS011;30159;49.316;8.558;2023-02-26T11:01:38;0.50;;;0.40;;
44456;SDS011;30159;49.316;8.558;2023-02-26T11:04:06;0.70;;;0.47;;
44456;SDS011;30159;49.316;8.558;2023-02-26T11:06:39;3.77;;;0.67;;
44456;SDS011;30159;49.316;8.558;2023-02-26T11:09:13;2.00;;;0.60;;
44456;SDS011;30159;49.316;8.558;2023-02-26T11:11:46;0.80;;;0.70;;
44456;SDS011;30159;49.316;8.558;2023-02-26T11:14:16;0.77;;;0.60;;
44456;SDS011;30159;49.316;8.558;2023-02-26T11:16:45;1.40;;;0.60;;
44456;SDS011;30159;49.316;8.558;2023-02-26T11:19:15;1.10;;;0.70;;
44456;SDS011;30159;49.316;8.558;2023-02-26T11:21:45;0.80;;;0.60;;
44456;SDS011;30159;49.316;8.558;2023-02-26T11:24:15;0.90;;;0.50;;
44456;SDS011;30159;49.316;8.558;2023-02-26T11:26:48;0.60;;;0.50;;
44456;SDS011;30159;49.316;8.558;2023-02-26T11:29:16;0.90;;;0.63;;
44456;SDS011;30159;49.316;8.558;2023-02-26T11:31:46;0.60;;;0.60;;
44456;SDS011;30159;49.316;8.558;2023-02-26T11:34:20;1.10;;;0.80;;
44456;SDS011;30159;49.316;8.558;2023-02-26T11:36:47;1.00;;;0.90;;
44456;SDS011;30159;49.316;8.558;2023-02-26T11:39:15;0.50;;;0.50;;
44456;SDS011;30159;49.316;8.558;2023-02-26T11:41:44;1.03;;;0.60;;
44456;SDS011;30159;49.316;8.558;2023-02-26T11:44:13;0.80;;;0.60;;
44456;SDS011;30159;49.316;8.558;2023-02-26T11:46:43;0.80;;;0.70;;
44456;SDS011;30159;49.316;8.558;2023-02-26T11:49:17;0.60;;;0.50;;
44456;SDS011;30159;49.316;8.558;2023-02-26T11:51:46;1.23;;;0.43;;
44456;SDS011;30159;49.316;8.558;2023-02-26T11:54:21;0.60;;;0.53;;
44456;SDS011;30159;49.316;8.558;2023-02-26T11:56:49;0.60;;;0.43;;
44456;SDS011;30159;49.316;8.558;2023-02-26T11:59:16;0.70;;;0.60;;
44456;SDS011;30159;49.316;8.558;2023-02-26T12:01:45;0.70;;;0.60;;
44456;SDS011;30159;49.316;8.558;2023-02-26T12:04:13;0.60;;;0.50;;
44456;SDS011;30159;49.316;8.558;2023-02-26T12:06:44;0.70;;;0.43;;
44456;SDS011;30159;49.316;8.558;2023-02-26T12:09:14;0.50;;;0.40;;
44456;SDS011;30159;49.316;8.558;2023-02-26T12:11:59;0.60;;;0.50;;
44456;SDS011;30159;49.316;8.558;2023-02-26T12:14:43;0.60;;;0.40;;
44456;SDS011;30159;49.316;8.558;2023-02-26T12:20:14;0.60;;;0.43;;
44456;SDS011;30159;49.316;8.558;2023-02-26T12:22:50;2.13;;;0.60;;
44456;SDS011;30159;49.316;8.558;2023-02-26T12:25:40;0.83;;;0.60;;
44456;SDS011;30159;49.316;8.558;2023-02-26T12:28:36;0.60;;;0.40;;
44456;SDS011;30159;49.316;8.558;2023-02-26T12:31:18;1.00;;;0.70;;
44456;SDS011;30159;49.316;8.558;2023-02-26T12:33:56;0.77;;;0.57;;
44456;SDS011;30159;49.316;8.558;2023-02-26T12:36:37;0.70;;;0.40;;
44456;SDS011;30159;49.316;8.558;2023-02-26T12:39:26;1.90;;;0.50;;
44456;SDS011;30159;49.316;8.558;2023-02-26T12:42:08;0.50;;;0.40;;
44456;SDS011;30159;49.316;8.558;2023-02-26T12:44:53;0.57;;;0.40;;
44456;SDS011;30159;49.316;8.558;2023-02-26T12:47:34;0.60;;;0.50;;
44456;SDS011;30159;49.316;8.558;2023-02-26T12:50:24;0.63;;;0.50;;
44456;SDS011;30159;49.316;8.558;2023-02-26T12:53:14;0.60;;;0.43;;
44456;SDS011;30159;49.316;8.558;2023-02-26T12:56:17;0.60;;;0.40;;
44456;SDS011;30159;49.316;8.558;2023-02-26T12:58:58;0.60;;;0.50;;
44456;SDS011;30159;49.316;8.558;2023-02-26T13:01:40;0.63;;;0.40;;
44456;SDS011;30159;49.316;8.558;2023-02-26T13:04:29;0.50;;;0.40;;
44456;SDS011;30159;49.316;8.558;2023-02-26T13:07:10;0.60;;;0.50;;
44456;SDS011;30159;49.316;8.558;2023-02-26T13:09:49;0.60;;;0.50;;
44456;SDS011;30159;49.316;8.558;2023-02-26T13:12:32;1.40;;;0.60;;
44456;SDS011;30159;49.316;8.558;2023-02-26T13:15:15;1.20;;;0.60;;
44456;SDS011;30159;49.316;8.558;2023-02-26T13:17:53;0.60;;;0.53;;
44456;SDS011;30159;49.316;8.558;2023-02-26T13:20:27;2.70;;;0.80;;
44456;SDS011;30159;49.316;8.558;2023-02-26T13:22:55;0.80;;;0.60;;
44456;SDS011;30159;49.316;8.558;2023-02-26T13:25:25;0.60;;;0.50;;
44456;SDS011;30159;49.316;8.558;2023-02-26T13:27:58;0.50;;;0.50;;
44456;SDS011;30159;49.316;8.558;2023-02-26T13:30:29;0.67;;;0.53;;
44456;SDS011;30159;49.316;8.558;2023-02-26T13:33:01;0.80;;;0.70;;
44456;SDS011;30159;49.316;8.558;2023-02-26T13:35:28;0.73;;;0.60;;
44456;SDS011;30159;49.316;8.558;2023-02-26T13:37:59;0.50;;;0.40;;
44456;SDS011;30159;49.316;8.558;2023-02-26T13:40:42;0.57;;;0.40;;
44456;SDS011;30159;49.316;8.558;2023-02-26T13:43:18;0.60;;;0.50;;
44456;SDS011;30159;49.316;8.558;2023-02-26T13:45:56;1.23;;;0.53;;
44456;SDS011;30159;49.316;8.558;2023-02-26T13:48:34;0.60;;;0.47;;
44456;SDS011;30159;49.316;8.558;2023-02-26T13:51:07;0.80;;;0.60;;
44456;SDS011;30159;49.316;8.558;2023-02-26T13:53:48;0.97;;;0.70;;
44456;SDS011;30159;49.316;8.558;2023-02-26T13:56:20;0.70;;;0.50;;
44456;SDS011;30159;49.316;8.558;2023-02-26T13:59:23;0.50;;;0.40;;
44456;SDS011;30159;49.316;8.558;2023-02-26T14:02:02;0.60;;;0.47;;
44456;SDS011;30159;49.316;8.558;2023-02-26T14:08:17;0.67;;;0.53;;
44456;SDS011;30159;49.316;8.558;2023-02-26T14:10:53;0.50;;;0.40;;
44456;SDS011;30159;49.316;8.558;2023-02-26T14:13:22;0.50;;;0.40;;
44456;SDS011;30159;49.316;8.558;2023-02-26T14:15:57;0.50;;;0.40;;
44456;SDS011;30159;49.316;8.558;2023-02-26T14:18:28;1.27;;;0.60;;
44456;SDS011;30159;49.316;8.558;2023-02-26T14:24:04;0.80;;;0.70;;
44456;SDS011;30159;49.316;8.558;2023-02-26T14:26:38;1.20;;;0.77;;
44456;SDS011;30159;49.316;8.558;2023-02-26T14:29:15;0.70;;;0.70;;
44456;SDS011;30159;49.316;8.558;2023-02-26T14:31:54;0.73;;;0.70;;
44456;SDS011;30159;49.316;8.558;2023-02-26T14:34:30;0.83;;;0.70;;
44456;SDS011;30159;49.316;8.558;2023-02-26T14:37:01;0.80;;;0.80;;
44456;SDS011;30159;49.316;8.558;2023-02-26T14:39:33;0.60;;;0.50;;
44456;SDS011;30159;49.316;8.558;2023-02-26T14:42:03;1.03;;;0.50;;
44456;SDS011;30159;49.316;8.558;2023-02-26T14:44:33;0.60;;;0.40;;
44456;SDS011;30159;49.316;8.558;2023-02-26T14:47:05;0.60;;;0.50;;
44456;SDS011;30159;49.316;8.558;2023-02-26T14:49:33;0.60;;;0.50;;
44456;SDS011;30159;49.316;8.558;2023-02-26T14:55:08;0.50;;;0.30;;
44456;SDS011;30159;49.316;8.558;2023-02-26T14:57:50;0.50;;;0.30;;
44456;SDS011;30159;49.316;8.558;2023-02-26T15:00:25;0.60;;;0.40;;
44456;SDS011;30159;49.316;8.558;2023-02-26T15:03:11;1.10;;;0.40;;
44456;SDS011;30159;49.316;8.558;2023-02-26T15:05:51;0.80;;;0.50;;
44456;SDS011;30159;49.316;8.558;2023-02-26T15:08:43;0.60;;;0.50;;
44456;SDS011;30159;49.316;8.558;2023-02-26T15:11:24;0.60;;;0.60;;
44456;SDS011;30159;49.316;8.558;2023-02-26T15:14:08;0.50;;;0.50;;
44456;SDS011;30159;49.316;8.558;2023-02-26T15:16:51;0.60;;;0.50;;
44456;SDS011;30159;49.316;8.558;2023-02-26T15:19:35;0.60;;;0.47;;
44456;SDS011;30159;49.316;8.558;2023-02-26T15:22:18;0.60;;;0.50;;
44456;SDS011;30159;49.316;8.558;2023-02-26T15:24:53;0.90;;;0.70;;
44456;SDS011;30159;49.316;8.558;2023-02-26T15:27:20;0.80;;;0.70;;
44456;SDS011;30159;49.316;8.558;2023-02-26T15:29:47;1.37;;;0.73;;
44456;SDS011;30159;49.316;8.558;2023-02-26T15:32:20;1.00;;;0.70;;